• Join FlightAware (Why Join?)
  • Login
  • US Flag GB Flag 
18:33 EDT


 

Airport Tracker/Info


-or-


 

Live Flight TrackerFlight Track Log ✈ FDX1570 ✈ 04-May-2013 ✈ KMEM - KALB

Flight Track Log - Related Links

Times and Time Zones

All times are in EDT time to prevent confusion due to time zone crossing. See the FDX1570 flight status page for this flight to view local times or setup timezone preferences in your user account.

Time Position Orientation Groundspeed Altitude Reporting Facility
EDT Latitude Longitude Course Direction KTS MPH feet Rate Location/Type
04:22 35.0167 -89.9667 65° Northeast 163 188 1,300  Level KMEM
04:23 34.9667 -89.9333 151° Southeast 262 302 4,300 3,360 Climbing KMEM
04:24 34.9833 -89.8500 76° East 295 339 8,300 3,300 Climbing KMEM
04:25 35.0167 -89.7500 68° East 334 384 11,000 2,760 Climbing KMEM
04:26 35.0781 -89.5983 64° Northeast 414 476 14,500 3,120 Climbing Memphis Center
04:27 35.1250 -89.4686 66° East 414 476 17,900 3,240 Climbing Memphis Center
04:28 35.2341 -89.1480 65° Northeast  Level FlightAware Approximate
04:28 35.1719 -89.3308 67° East 419 482 21,000  Level Memphis Center
04:29 35.2189 -89.1981 67° East 425 489 24,000 2,580 Climbing Memphis Center
04:30 35.2781 -89.0625 62° Northeast 431 496 26,200 1,860 Climbing Memphis Center
04:31 35.3414 -88.9444 57° Northeast 450 518 27,800 1,620 Climbing Memphis Center
04:37 35.8180 -88.1570 57° Northeast 502 578 37,300 1,560 Climbing FlightAware
04:38 35.8600 -88.0850 54° Northeast 505 581 37,800 1,260 Climbing FlightAware
04:39 35.9190 -87.9860 54° Northeast 494 568 38,900 840 Climbing FlightAware
04:39 35.9740 -87.8950 53° Northeast 479 551 39,000 60 Climbing FlightAware
04:40 36.0260 -87.8080 54° Northeast 486 559 39,000  Level FlightAware
04:41 36.0870 -87.7040 54° Northeast 489 563 39,000  Level FlightAware
04:41 36.1410 -87.6120 54° Northeast 488 562 39,000  Level FlightAware
04:42 36.1800 -87.5460 54° Northeast 489 563 39,000  Level FlightAware
04:42 36.2340 -87.4530 54° Northeast 490 564 39,000  Level FlightAware
04:43 36.2920 -87.3550 54° Northeast 493 567 39,000  Level FlightAware
04:44 36.3540 -87.2470 54° Northeast 497 572 39,000  Level FlightAware
04:45 36.4080 -87.1560 54° Northeast 500 575 39,000  Level FlightAware
04:45 36.4540 -87.0750 55° Northeast 501 577 39,000  Level FlightAware
04:46 36.4960 -87.0050 53° Northeast 502 578 39,000  Level FlightAware
04:46 36.5570 -86.8990 54° Northeast 504 580 39,000  Level FlightAware
04:47 36.6100 -86.8070 54° Northeast 503 579 39,000  Level FlightAware
04:48 36.6558 -86.7270 54° Northeast 503 579 39,000  Level FlightAware ADS-B
04:48 36.6974 -86.6541 55° Northeast 502 578 39,000  Level FlightAware ADS-B
04:49 36.7401 -86.5789 55° Northeast 501 577 39,000  Level FlightAware ADS-B
04:49 36.7805 -86.5082 54° Northeast 499 574 39,000  Level FlightAware ADS-B
04:50 36.8214 -86.4381 54° Northeast 498 573 39,000  Level FlightAware ADS-B
04:50 36.8806 -86.3331 55° Northeast 493 567 39,000  Level FlightAware ADS-B
04:51 36.9333 -86.2407 54° Northeast 488 562 39,000  Level FlightAware ADS-B
04:52 37.0330 -86.0630 55° Northeast 480 552 39,000  Level FlightAware
04:53 37.0690 -85.9990 55° Northeast 479 551 39,000  Level FlightAware
04:53 37.1040 -85.9380 54° Northeast 479 551 39,000  Level FlightAware
04:54 37.1550 -85.8470 55° Northeast 480 552 39,000  Level FlightAware
04:55 37.2110 -85.7460 55° Northeast 480 552 39,000  Level FlightAware
04:55 37.2446 -85.6848 55° Northeast 480 552 39,000  Level FlightAware ADS-B
04:56 37.2856 -85.6116 55° Northeast 480 552 39,000  Level FlightAware ADS-B
04:56 37.3244 -85.5407 55° Northeast 481 554 39,000  Level FlightAware ADS-B
04:57 37.3630 -85.4721 55° Northeast 479 551 39,000  Level FlightAware ADS-B
04:57 37.4012 -85.4034 55° Northeast 479 551 39,000  Level FlightAware ADS-B
04:58 37.4393 -85.3323 56° Northeast 480 552 39,000  Level FlightAware ADS-B
04:58 37.4773 -85.2635 55° Northeast 480 552 39,000  Level FlightAware ADS-B
04:59 37.5154 -85.1945 55° Northeast 480 552 39,000  Level FlightAware ADS-B
04:59 37.5670 -85.1010 55° Northeast 479 551 39,000  Level FlightAware
05:00 37.5445 -85.1420 235° Southwest 478 550 39,000  Level FlightAware ADS-B
05:00 37.6356 -84.9740 56° Northeast 479 551 39,000  Level FlightAware ADS-B
05:01 37.6856 -84.8842 55° Northeast 479 551 39,000  Level FlightAware ADS-B
05:02 37.7494 -84.7662 56° Northeast 481 554 39,000  Level FlightAware ADS-B
05:03 37.8050 -84.6620 56° Northeast 480 552 39,000  Level FlightAware
05:03 37.8230 -84.6295 55° Northeast 481 554 39,000  Level FlightAware ADS-B
05:04 37.8970 -84.4930 55° Northeast 479 551 39,000  Level FlightAware
05:05 37.9490 -84.3950 56° Northeast 480 552 39,000  Level FlightAware
05:05 37.9900 -84.3180 56° Northeast 481 554 39,000  Level FlightAware
05:06 38.0430 -84.2170 56° Northeast 482 555 39,000  Level FlightAware
05:07 38.1070 -84.0970 56° Northeast 482 555 39,000  Level FlightAware
05:08 38.1730 -83.9720 56° Northeast 484 557 39,000  Level FlightAware
05:08 38.2160 -83.8920 56° Northeast 484 557 39,000  Level FlightAware
05:09 38.2850 -83.7590 57° Northeast 483 556 39,000  Level FlightAware
05:10 38.3340 -83.6650 56° Northeast 483 556 39,000  Level FlightAware
05:10 38.3870 -83.5630 56° Northeast 482 555 39,000  Level FlightAware
05:11 38.4270 -83.4880 56° Northeast 482 555 39,000  Level FlightAware
05:12 38.4690 -83.4080 56° Northeast 482 555 39,000  Level FlightAware
05:13 38.5220 -83.3080 56° Northeast 482 555 39,000  Level FlightAware
05:13 38.5640 -83.2270 56° Northeast 482 555 39,000  Level FlightAware
05:14 38.6070 -83.1470 55° Northeast 482 555 39,000  Level FlightAware
05:15 38.6890 -82.9790 58° Northeast 477 549 39,000  Level FlightAware
05:15 38.7530 -82.8520 57° Northeast 477 549 39,000  Level FlightAware
05:16 38.8030 -82.7550 56° Northeast 475 547 39,000  Level FlightAware
05:17 38.8480 -82.6670 57° Northeast 473 544 39,000  Level FlightAware
05:18 38.9030 -82.5570 57° Northeast 472 543 39,000  Level FlightAware
05:18 38.9570 -82.4510 57° Northeast 473 544 39,000  Level FlightAware
05:19 39.0050 -82.3540 57° Northeast 473 544 39,000  Level FlightAware
05:20 39.0590 -82.2470 57° Northeast 473 544 39,000  Level FlightAware
05:21 39.1230 -82.1170 58° Northeast 473 544 39,000  Level FlightAware
05:21 39.1710 -82.0220 57° Northeast 474 545 39,000  Level FlightAware
05:22 39.2180 -81.9270 57° Northeast 472 543 39,000  Level FlightAware
05:23 39.2710 -81.8180 58° Northeast 471 542 39,000  Level FlightAware
05:23 39.3160 -81.7270 57° Northeast 471 542 39,000  Level FlightAware
05:24 39.3690 -81.6180 58° Northeast 471 542 39,000  Level FlightAware
05:25 39.4160 -81.5230 57° Northeast 469 540 39,000  Level FlightAware
05:26 39.4680 -81.4160 58° Northeast 468 539 39,000  Level FlightAware
05:26 39.5150 -81.3220 57° Northeast 467 537 39,000  Level FlightAware
05:27 39.5610 -81.2250 58° Northeast 466 536 39,000  Level FlightAware
05:28 39.6070 -81.1300 58° Northeast 465 535 39,000  Level FlightAware
05:28 39.6560 -81.0280 58° Northeast 463 533 39,000  Level FlightAware
05:29 39.7020 -80.9320 58° Northeast 462 532 39,000  Level FlightAware
05:30 39.7520 -80.8280 58° Northeast 462 532 39,000  Level FlightAware
05:30 39.7970 -80.7340 58° Northeast 461 531 39,000  Level FlightAware
05:31 39.8470 -80.6280 58° Northeast 460 529 39,000  Level FlightAware
05:32 39.8920 -80.5330 58° Northeast 461 531 39,000  Level FlightAware
05:32 39.9380 -80.4360 58° Northeast 462 532 39,000  Level FlightAware
05:33 39.9890 -80.3270 59° Northeast 464 534 39,000  Level FlightAware
05:34 40.0320 -80.2360 58° Northeast 464 534 39,000  Level FlightAware
05:35 40.0830 -80.1260 59° Northeast 465 535 39,000  Level FlightAware
05:35 40.1350 -80.0170 58° Northeast 466 536 39,000  Level FlightAware
05:36 40.1730 -79.9330 59° Northeast 466 536 39,000  Level FlightAware
05:37 40.2240 -79.8250 58° Northeast 467 537 39,000  Level FlightAware
05:37 40.2730 -79.7180 59° Northeast 466 536 39,000  Level FlightAware
05:38 40.3180 -79.6190 59° Northeast 466 536 39,000  Level FlightAware
05:39 40.3630 -79.5220 59° Northeast 465 535 39,000  Level FlightAware
05:40 40.4130 -79.4130 59° Northeast 465 535 39,000  Level FlightAware
05:40 40.4500 -79.3310 59° Northeast 466 536 39,000  Level FlightAware
05:41 40.5020 -79.2160 59° Northeast 466 536 39,000  Level FlightAware
05:42 40.5490 -79.1120 59° Northeast 467 537 39,000  Level FlightAware
05:42 40.5930 -79.0160 59° Northeast 466 536 39,000  Level FlightAware
05:43 40.6420 -78.9060 60° Northeast 468 539 39,000  Level FlightAware
05:44 40.6960 -78.7860 59° Northeast 467 537 39,000  Level FlightAware
05:45 40.7460 -78.6730 60° Northeast 466 536 39,000  Level FlightAware
05:45 40.7890 -78.5780 59° Northeast 465 535 39,000  Level FlightAware
05:46 40.8330 -78.4770 60° Northeast 466 536 39,000  Level FlightAware
05:47 40.8800 -78.3720 59° Northeast 466 536 39,000  Level FlightAware
05:47 40.9250 -78.2710 59° Northeast 466 536 39,000  Level FlightAware
05:48 40.9750 -78.1570 60° Northeast 467 537 39,000  Level FlightAware
05:49 41.0160 -78.0630 60° Northeast 466 536 39,000  Level FlightAware
05:50 41.0650 -77.9500 60° Northeast 465 535 39,000 -420 Level FlightAware
05:50 41.0971 -77.8754 60° Northeast 466 536 38,600 -1,200 Descending FlightAware ADS-B
05:51 41.1430 -77.7707 60° Northeast 470 541 37,800 -1,140 Descending FlightAware ADS-B
05:51 41.1774 -77.6908 60° Northeast 470 541 37,200 -900 Descending FlightAware ADS-B
05:52 41.2000 -77.6380 60° Northeast 469 540 36,900 -1,200 Descending FlightAware
05:52 41.2319 -77.5632 60° Northeast 469 540 36,200 -1,860 Descending FlightAware ADS-B
05:53 41.2811 -77.4483 60° Northeast 470 541 34,900 -1,740 Descending FlightAware ADS-B
05:54 41.3259 -77.3449 60° Northeast 472 543 33,700 -1,740 Descending FlightAware ADS-B
05:54 41.3599 -77.2638 61° Northeast 473 544 32,800 -1,680 Descending FlightAware ADS-B
05:55 41.3924 -77.1880 60° Northeast 471 542 32,000 -1,740 Descending FlightAware ADS-B
05:55 41.4275 -77.1046 61° Northeast 471 542 31,000 -1,740 Descending FlightAware ADS-B
05:56 41.4694 -77.0052 61° Northeast 475 547 30,000 -1,440 Descending FlightAware ADS-B
05:56 41.5037 -76.9235 61° Northeast 474 545 29,300 -960 Descending FlightAware ADS-B
05:57 41.5378 -76.8421 61° Northeast 473 544 29,000 -420 Descending FlightAware ADS-B
05:57 41.5576 -76.8002 58° Northeast 476 548 29,000  Level FlightAware ADS-B
05:58 41.6215 -76.6947 51° Northeast 474 545 29,000  Level FlightAware ADS-B
05:58 41.6639 -76.6243 51° Northeast 476 548 29,000  Level FlightAware ADS-B
05:59 41.7074 -76.5527 51° Northeast 478 550 29,000  Level FlightAware ADS-B
05:59 41.7500 -76.4806 52° Northeast 479 551 29,000  Level FlightAware ADS-B
06:00 41.7919 -76.4082 52° Northeast 478 550 29,000  Level FlightAware ADS-B
06:00 41.8346 -76.3333 53° Northeast 478 550 29,000  Level FlightAware ADS-B
06:01 41.8791 -76.2562 52° Northeast 477 549 29,000  Level FlightAware ADS-B
06:02 41.9223 -76.1819 52° Northeast 473 544 29,000 -840 Level FlightAware ADS-B
06:02 41.9710 -76.0980 52° Northeast 454 522 28,000 -1,140 Descending FlightAware
06:03 42.0140 -76.0250 52° Northeast 452 520 27,600 -2,220 Descending FlightAware
06:04 42.0760 -75.9160 53° Northeast 454 522 24,700 -2,100 Descending FlightAware
06:05 42.1440 -75.8000 52° Northeast 440 506 24,000 -540 Descending FlightAware
06:05 42.1850 -75.7310 51° Northeast 441 507 24,000  Level FlightAware
06:06 42.2390 -75.6350 53° Northeast 24,000  Level FlightAware
06:07 42.2930 -75.5400 52° Northeast 436 502 24,000 -540 Level FlightAware
06:07 42.3380 -75.4310 61° Northeast 429 494 23,200 -540 Descending FlightAware
06:08 42.3670 -75.3410 66° East 429 494 23,200  Level FlightAware
06:09 42.3950 -75.2580 65° Northeast 429 494 23,200  Level FlightAware
06:09 42.4220 -75.1740 66° East 429 494 23,200  Level FlightAware
06:10 42.4500 -75.0910 65° Northeast 429 494 23,200  Level FlightAware
06:11 42.4770 -75.0070 66° East 429 494 23,200  Level FlightAware
06:11 42.5050 -74.9240 65° Northeast 429 494 23,200 -5,160 Level FlightAware
06:12 42.5192 -74.7192 65° Northeast 428 493 17,400 -7,140 Descending Boston Center
06:13 42.5397 -74.6297 73° East 396 456 15,000 -3,420 Descending Boston Center
06:13 42.5533 -74.5794 70° East 403 464 14,000 -3,120 Descending Boston Center
06:14 42.5758 -74.4900 71° East 363 418 11,900 -2,700 Descending Boston Center
06:14 42.5847 -74.4536 72° East 362 417 11,300 -1,320 Descending Boston Center
06:15 42.6114 -74.3614 69° East 351 404 10,600 -720 Descending Boston Center
06:15 42.6222 -74.3306 64° Northeast 353 406 10,600 -240 Level Boston Center
06:16 42.6547 -74.2639 56° Northeast 283 326 10,400 -420 Descending Boston Center
06:16 42.6675 -74.2444 48° Northeast 301 346 10,200 -1,200 Descending Boston Center
06:17 42.6997 -74.1831 54° Northeast 254 292 9,200 -1,140 Descending Boston Center
06:17 42.6997 -74.1775 90° East 271 312 9,100 -1,800 Descending Boston Center
06:18 42.7406 -74.1025 53° Northeast 260 299 7,400 -2,220 Descending Boston Center
06:18 42.7533 -74.0800 52° Northeast 261 300 6,900 -1,620 Descending Boston Center
06:19 42.7833 -74.0214 55° Northeast 259 298 5,800 -1,500 Descending Boston Center
06:19 42.7939 -74.0047 49° Northeast 256 295 5,400 -1,320 Descending Boston Center
06:20 42.8175 -73.9517 59° Northeast 219 252 4,500 -1,500 Descending Boston Center
06:20 42.8261 -73.9319 59° Northeast 237 273 3,900 -1,620 Descending Boston Center
06:21 42.8289 -73.8756 86° East 188 216 2,900 -960 Descending Boston Center
06:21 42.8503 -73.8475 44° Northeast 211 243 2,800 -1,200 Descending Boston Center
06:22 42.8192 -73.8214 148° Southeast 147 169 1,700 8,160 Descending Boston Center
06:22 42.8761 -73.7772 30° Northeast 211 243 11,000 -900 Climbing Boston Center
06:23 42.7819 -73.8092 194° South 125 144 800  Descending Boston Center
06:23 42.9039 -73.7072 31° Northeast 211 243 11,000 7,200 Climbing Boston Center
06:24 42.9297 -73.6367 63° Northeast 211 243 11,000  Level Boston Center
06:25 42.9469 -73.5944 61° Northeast 211 243 11,000  Level Boston Center